Portada
METAR-TAF:

METAR-TAF

Aeroports :

Aeroport Internacional de Singapur-Changi

Singapur, Singapur

latitud: 01-22N, longitud: 103-59E, altitud: 5 m

Observació

L'informe es va fer fa 24 minuts, a les 00:30 UTC
Vent 8 kt del Nord-Est, variant entre Nord i Est
Temperatura 28°C
Humitat 74%
Pressió 1011 hPa
Visibilitat: 8000 m
Escasses núvols a una alçada de 1800 ft
Cel ennuvolat a una alçada de 35000 ft

METAR: WSSS 200030Z 04008KT 010V080 8000 FEW018 BKN350 28/23 Q1011 NOSIG

Hora: 08:54 (00:54 UTC)

Pronòstic

L'informe es va fer fa 1 hora i 54 minuts, a les 23:00 UTC
Pronòstic vàlid del 20 a les 00 UTC al 21 a les 06 UTC
Vent 10 kt del Nord
Visibilitat 10 km o més
Núvols disperses a una alçada de 2000 ft

TAF: WSSS 192300Z 2000/2106 01010KT 9999 SCT020

Observacions i pronòstics meteorològics de més de 4000 aeroports (METAR i TAF).

Les estacions disponibles són els punts grocs i vermells al mapa.

Posi el ratolí al punt desitjat per veure el nom de l'estació.

Feu clic per veure les observacions i els pronòstics meteorològics.

Per canviar el mapa: feu clic els botons verds amb una creu de color negre per apropar; al botó verd amb un guió per allunyar la imatge; o en les fletxes verdes per a mapes adjacents.


METAR-TAF: